createdAt,value
2022-12-10T00:00:19.853Z,0.40
2022-12-10T00:01:24.378Z,0.41
2022-12-10T00:02:26.521Z,0.41
2022-12-10T00:03:29.682Z,0.41
2022-12-10T00:04:32.828Z,0.40
2022-12-10T00:05:37.095Z,0.41
2022-12-10T00:06:40.842Z,0.40
2022-12-10T00:07:43.012Z,0.41
2022-12-10T00:08:46.554Z,0.40
2022-12-10T00:09:49.042Z,0.39
2022-12-10T00:10:52.257Z,0.39
2022-12-10T00:11:55.486Z,0.39
2022-12-10T00:12:57.669Z,0.38
2022-12-10T00:14:01.491Z,0.39
2022-12-10T00:15:03.998Z,0.38
2022-12-10T00:16:09.643Z,0.38
2022-12-10T00:17:13.188Z,0.38
2022-12-10T00:18:16.685Z,0.37
2022-12-10T00:19:18.784Z,0.37
2022-12-10T00:20:22.056Z,0.37
2022-12-10T00:21:28.560Z,0.37
2022-12-10T00:22:31.791Z,0.36
2022-12-10T00:23:34.580Z,0.37
2022-12-10T00:24:37.815Z,0.36
2022-12-10T00:25:40.040Z,0.36
2022-12-10T00:26:43.717Z,0.36
2022-12-10T00:27:46.468Z,0.36
2022-12-10T00:28:54.333Z,0.37
2022-12-10T00:29:56.528Z,0.37
2022-12-10T00:31:05.072Z,0.36
2022-12-10T00:32:08.418Z,0.35
2022-12-10T00:33:10.800Z,0.35
2022-12-10T00:34:14.949Z,0.36
2022-12-10T00:35:17.234Z,0.36
2022-12-10T00:36:22.902Z,0.37
2022-12-10T00:37:28.758Z,0.37
2022-12-10T00:38:32.043Z,0.38
2022-12-10T00:39:34.168Z,0.37
2022-12-10T00:40:37.381Z,0.34
2022-12-10T00:41:39.471Z,0.36
2022-12-10T00:42:42.486Z,0.35
2022-12-10T00:43:45.140Z,0.35
2022-12-10T00:44:48.262Z,0.34
2022-12-10T00:45:50.507Z,0.34
2022-12-10T00:46:53.610Z,0.33
2022-12-10T00:47:55.762Z,0.34
2022-12-10T00:49:00.310Z,0.32
2022-12-10T00:50:02.495Z,0.32
2022-12-10T00:51:07.854Z,0.32
2022-12-10T00:52:10.866Z,0.32
2022-12-10T00:53:15.509Z,0.31
2022-12-10T00:54:18.580Z,0.31
2022-12-10T00:55:20.641Z,0.32
2022-12-10T00:56:25.869Z,0.32
2022-12-10T00:57:27.896Z,0.34
2022-12-10T00:58:32.710Z,0.33
2022-12-10T00:59:36.029Z,0.35
2022-12-10T01:00:38.135Z,0.34
2022-12-10T01:01:43.488Z,0.36
2022-12-10T01:02:45.594Z,0.37
2022-12-10T01:03:50.993Z,0.37
2022-12-10T01:04:54.108Z,0.38
2022-12-10T01:05:57.216Z,0.37
2022-12-10T01:07:01.091Z,0.38
2022-12-10T01:08:04.988Z,0.38
2022-12-10T01:09:12.263Z,0.37
2022-12-10T01:10:14.378Z,0.37
2022-12-10T01:11:20.536Z,0.36
2022-12-10T01:12:22.604Z,0.35
2022-12-10T01:13:25.646Z,0.34
2022-12-10T01:14:30.378Z,0.34
2022-12-10T01:15:33.523Z,0.34
2022-12-10T01:16:36.183Z,0.32
2022-12-10T01:17:39.361Z,0.34
2022-12-10T01:18:42.240Z,0.35
2022-12-10T01:19:45.381Z,0.33
2022-12-10T01:20:47.473Z,0.34
2022-12-10T01:21:52.489Z,0.33
2022-12-10T01:22:54.622Z,0.31
2022-12-10T01:23:59.236Z,0.28
2022-12-10T01:25:03.763Z,0.29
2022-12-10T01:26:09.235Z,0.28
2022-12-10T01:27:11.419Z,0.27
2022-12-10T01:28:14.778Z,0.26
2022-12-10T01:29:17.647Z,0.26
2022-12-10T01:30:20.708Z,0.25
2022-12-10T01:31:25.972Z,0.24
2022-12-10T01:32:29.057Z,0.24
2022-12-10T01:33:31.452Z,0.23
2022-12-10T01:34:35.686Z,0.23
2022-12-10T01:35:37.937Z,0.20
2022-12-10T01:36:43.420Z,0.19
2022-12-10T01:37:46.867Z,0.18
2022-12-10T01:38:50.873Z,0.18
2022-12-10T01:39:53.079Z,0.18
2022-12-10T01:40:57.571Z,0.18
2022-12-10T01:42:02.460Z,0.18
2022-12-10T01:43:05.317Z,0.19
2022-12-10T01:44:41.700Z,0.19
2022-12-10T01:45:44.866Z,0.21
2022-12-10T01:46:48.546Z,0.21
2022-12-10T01:47:51.651Z,0.21
2022-12-10T01:48:54.195Z,0.22
2022-12-10T01:49:58.992Z,0.23
2022-12-10T01:51:01.208Z,0.23
2022-12-10T01:52:06.891Z,0.23
2022-12-10T01:53:09.786Z,0.25
2022-12-10T01:54:15.147Z,0.24
2022-12-10T01:55:41.245Z,0.24
2022-12-10T01:56:47.950Z,0.23
2022-12-10T01:57:50.079Z,0.22
2022-12-10T01:58:56.540Z,0.22
2022-12-10T02:00:02.121Z,0.21
2022-12-10T02:01:12.192Z,0.22
2022-12-10T02:02:21.920Z,0.22
2022-12-10T02:03:34.544Z,0.22
2022-12-10T02:04:47.178Z,0.23
2022-12-10T02:06:00.227Z,0.21
2022-12-10T02:07:07.431Z,0.19
2022-12-10T02:08:20.436Z,0.18
2022-12-10T02:09:28.988Z,0.17
2022-12-10T02:10:44.630Z,0.15
2022-12-10T02:12:00.496Z,0.13
2022-12-10T02:13:08.880Z,0.13
2022-12-10T02:14:17.232Z,0.14
2022-12-10T02:15:24.549Z,0.14
2022-12-10T02:16:41.748Z,0.15
2022-12-10T02:17:51.179Z,0.16
2022-12-10T02:19:01.905Z,0.16
2022-12-10T02:20:09.791Z,0.16
2022-12-10T02:21:17.969Z,0.17
2022-12-10T02:22:23.244Z,0.14
2022-12-10T02:23:29.235Z,0.18
2022-12-10T02:24:37.099Z,0.18
2022-12-10T02:25:48.802Z,0.18
2022-12-10T02:26:57.966Z,0.20
2022-12-10T02:28:16.239Z,0.18
2022-12-10T02:29:25.675Z,0.17
2022-12-10T02:30:32.036Z,0.18
2022-12-10T02:31:36.055Z,0.17
2022-12-10T02:32:42.684Z,0.17
2022-12-10T02:33:50.808Z,0.17
2022-12-10T02:34:57.664Z,0.16
2022-12-10T02:36:01.078Z,0.14
2022-12-10T02:37:08.601Z,0.12
2022-12-10T02:38:17.823Z,0.10
2022-12-10T02:39:27.339Z,0.08
2022-12-10T02:40:36.128Z,0.08
2022-12-10T02:41:44.672Z,0.05
2022-12-10T02:42:49.520Z,0.06
2022-12-10T02:43:56.079Z,0.09
2022-12-10T02:45:02.526Z,0.07
2022-12-10T02:46:08.143Z,0.07
2022-12-10T02:47:13.644Z,0.07
2022-12-10T02:48:21.543Z,0.07
2022-12-10T02:49:26.466Z,0.07
2022-12-10T02:50:29.739Z,0.07
2022-12-10T02:51:31.788Z,0.06
2022-12-10T02:52:35.286Z,0.02
2022-12-10T02:53:42.744Z,0.05
2022-12-10T02:54:47.624Z,0.06
2022-12-10T02:56:03.908Z,0.07
2022-12-10T02:57:24.701Z,0.08
2022-12-10T02:58:36.308Z,0.06
2022-12-10T02:59:49.135Z,0.10
2022-12-10T03:01:01.126Z,0.12
2022-12-10T03:02:10.979Z,0.12
2022-12-10T03:03:34.161Z,0.13
2022-12-10T03:04:46.047Z,0.14
2022-12-10T03:05:57.761Z,0.13
2022-12-10T03:07:03.701Z,0.13
2022-12-10T03:08:14.234Z,0.13
2022-12-10T03:09:22.040Z,0.12
2022-12-10T03:10:29.392Z,0.13
2022-12-10T03:11:31.930Z,0.14
2022-12-10T03:12:39.812Z,0.14
2022-12-10T03:13:57.798Z,0.15
2022-12-10T03:15:03.502Z,0.16
2022-12-10T03:16:08.909Z,0.17
2022-12-10T03:17:11.327Z,0.18
2022-12-10T03:18:17.811Z,0.19
2022-12-10T03:19:25.169Z,0.18
2022-12-10T03:20:29.267Z,0.18
2022-12-10T03:21:34.006Z,0.18
2022-12-10T03:22:47.207Z,0.19
2022-12-10T03:23:51.010Z,0.19
2022-12-10T03:24:55.260Z,0.19
2022-12-10T03:25:57.444Z,0.18
2022-12-10T03:27:00.615Z,0.16
2022-12-10T03:28:02.811Z,0.16
2022-12-10T03:29:10.165Z,0.17
2022-12-10T03:30:12.777Z,0.17
2022-12-10T03:31:19.043Z,0.18
2022-12-10T03:32:23.268Z,0.18
2022-12-10T03:33:26.521Z,0.18
2022-12-10T03:34:29.432Z,0.18
2022-12-10T03:35:34.032Z,0.19
2022-12-10T03:36:37.798Z,0.19
2022-12-10T03:37:41.493Z,0.18
2022-12-10T03:38:44.524Z,0.21
2022-12-10T03:39:48.092Z,0.21
2022-12-10T03:40:50.223Z,0.19
2022-12-10T03:41:53.386Z,0.20
2022-12-10T03:42:55.459Z,0.15
2022-12-10T03:44:00.788Z,0.21
2022-12-10T03:45:03.001Z,0.21
2022-12-10T03:46:06.881Z,0.20
2022-12-10T03:47:15.426Z,0.22
2022-12-10T03:48:18.530Z,0.22
2022-12-10T03:49:20.559Z,0.23
2022-12-10T03:50:23.746Z,0.23
2022-12-10T03:51:25.933Z,0.23
2022-12-10T03:52:29.091Z,0.23
2022-12-10T03:53:31.517Z,0.23
2022-12-10T03:54:34.652Z,0.25
2022-12-10T03:55:36.679Z,0.24
2022-12-10T03:56:40.138Z,0.21
2022-12-10T03:57:43.009Z,0.23
2022-12-10T03:58:46.369Z,0.22
2022-12-10T03:59:48.964Z,0.19
2022-12-10T04:00:52.557Z,0.23
2022-12-10T04:01:54.764Z,0.23
2022-12-10T04:02:59.595Z,0.23
2022-12-10T04:04:04.138Z,0.24
2022-12-10T04:05:08.696Z,0.17
2022-12-10T04:06:15.628Z,0.24
2022-12-10T04:07:18.756Z,0.23
2022-12-10T04:08:20.987Z,0.24
2022-12-10T04:09:24.141Z,0.20
2022-12-10T04:10:26.254Z,0.22
2022-12-10T04:11:29.400Z,0.23
2022-12-10T04:12:32.572Z,0.21
2022-12-10T04:13:54.485Z,0.20
2022-12-10T04:15:15.145Z,0.18
2022-12-10T04:16:29.392Z,0.16
2022-12-10T04:17:34.410Z,0.16
2022-12-10T04:18:37.969Z,0.16
2022-12-10T04:19:41.233Z,0.17
2022-12-10T04:21:01.906Z,0.19
2022-12-10T04:22:22.459Z,0.19
2022-12-10T04:23:43.224Z,0.20
2022-12-10T04:25:03.674Z,0.25
2022-12-10T04:26:28.670Z,0.26
2022-12-10T04:27:34.823Z,0.28
2022-12-10T04:28:36.964Z,0.28
2022-12-10T04:29:40.634Z,0.27
2022-12-10T04:30:42.783Z,0.27
2022-12-10T04:31:45.928Z,0.25
2022-12-10T04:32:48.054Z,0.23
2022-12-10T04:33:52.546Z,0.21
2022-12-10T04:34:54.820Z,0.20
2022-12-10T04:35:58.039Z,0.19
2022-12-10T04:37:01.833Z,0.17
2022-12-10T04:38:04.879Z,0.16
2022-12-10T04:39:06.914Z,0.15
2022-12-10T04:40:11.885Z,0.13
2022-12-10T04:41:16.385Z,0.09
2022-12-10T04:42:20.272Z,0.09
2022-12-10T04:43:22.304Z,0.07
2022-12-10T04:44:25.449Z,0.07
2022-12-10T04:45:28.338Z,0.06
2022-12-10T04:46:31.609Z,0.05
2022-12-10T04:47:33.722Z,0.03
2022-12-10T04:48:36.798Z,0.00
2022-12-10T04:49:40.693Z,-0.01
2022-12-10T04:50:43.804Z,-0.01
2022-12-10T04:51:46.446Z,0.00
2022-12-10T04:52:49.500Z,0.02
2022-12-10T04:53:51.618Z,-0.10
2022-12-10T04:54:54.724Z,0.05
2022-12-10T04:55:56.914Z,0.07
2022-12-10T04:57:00.152Z,0.08
2022-12-10T04:58:03.033Z,0.12
2022-12-10T04:59:06.619Z,0.14
2022-12-10T05:00:10.204Z,0.16
2022-12-10T05:01:15.066Z,0.16
2022-12-10T05:02:17.222Z,0.16
2022-12-10T05:03:20.437Z,0.17
2022-12-10T05:04:22.682Z,0.18
2022-12-10T05:05:27.864Z,0.19
2022-12-10T05:06:30.601Z,0.17
2022-12-10T05:07:35.009Z,0.21
2022-12-10T05:08:38.154Z,0.23
2022-12-10T05:09:41.301Z,0.25
2022-12-10T05:10:43.374Z,0.24
2022-12-10T05:11:46.567Z,0.26
2022-12-10T05:12:48.643Z,0.24
2022-12-10T05:13:52.024Z,0.22
2022-12-10T05:14:54.079Z,0.21
2022-12-10T05:15:57.213Z,0.18
2022-12-10T05:16:59.348Z,0.16
2022-12-10T05:18:02.429Z,0.14
2022-12-10T05:19:04.546Z,0.11
2022-12-10T05:20:09.375Z,0.08
2022-12-10T05:21:15.758Z,0.07
2022-12-10T05:22:36.419Z,0.07
2022-12-10T05:23:40.583Z,0.04
2022-12-10T05:24:43.633Z,0.05
2022-12-10T05:25:53.945Z,0.04
2022-12-10T05:26:59.110Z,0.04
2022-12-10T05:28:01.224Z,0.06
2022-12-10T05:29:04.376Z,0.07
2022-12-10T05:30:08.236Z,0.07
2022-12-10T05:31:14.379Z,0.09
2022-12-10T05:32:16.454Z,0.11
2022-12-10T05:33:19.630Z,0.10
2022-12-10T05:34:21.821Z,0.08
2022-12-10T05:35:24.869Z,0.12
2022-12-10T05:36:30.101Z,0.12
2022-12-10T05:37:33.310Z,0.11
2022-12-10T05:38:35.782Z,0.14
2022-12-10T05:39:38.836Z,0.15
2022-12-10T05:40:41.046Z,0.16
2022-12-10T05:41:44.981Z,0.18
2022-12-10T05:42:47.576Z,0.20
2022-12-10T05:43:51.211Z,0.22
2022-12-10T05:44:53.314Z,0.24
2022-12-10T05:45:56.405Z,0.26
2022-12-10T05:46:58.572Z,0.28
2022-12-10T05:48:01.944Z,0.30
2022-12-10T05:49:06.293Z,0.30
2022-12-10T05:50:10.346Z,0.31
2022-12-10T05:51:14.774Z,0.32
2022-12-10T05:52:19.276Z,0.31
2022-12-10T05:53:21.410Z,0.30
2022-12-10T05:54:24.462Z,0.29
2022-12-10T05:55:27.607Z,0.26
2022-12-10T05:56:30.748Z,0.24
2022-12-10T05:57:33.839Z,0.20
2022-12-10T05:58:37.121Z,0.18
2022-12-10T05:59:40.368Z,0.15
2022-12-10T06:00:42.874Z,0.13
2022-12-10T06:01:45.919Z,0.12
2022-12-10T06:02:47.993Z,0.10
2022-12-10T06:03:53.209Z,0.08
2022-12-10T06:04:56.366Z,0.07
2022-12-10T06:05:58.460Z,0.05
2022-12-10T06:07:02.680Z,0.03
2022-12-10T06:08:08.482Z,0.03
2022-12-10T06:09:15.078Z,0.01
2022-12-10T06:10:17.343Z,0.00
2022-12-10T06:11:20.783Z,0.00
2022-12-10T06:12:22.958Z,-0.04
2022-12-10T06:13:26.089Z,-0.08
2022-12-10T06:14:29.083Z,0.02
2022-12-10T06:15:31.107Z,-0.04
2022-12-10T06:16:34.084Z,0.02
2022-12-10T06:17:37.305Z,0.02
2022-12-10T06:18:40.429Z,0.02
2022-12-10T06:19:43.460Z,0.03
2022-12-10T06:20:47.464Z,0.03
2022-12-10T06:21:50.668Z,0.03
2022-12-10T06:22:53.049Z,0.03
2022-12-10T06:23:58.910Z,0.03
2022-12-10T06:25:00.896Z,0.03
2022-12-10T06:26:06.129Z,0.01
2022-12-10T06:27:09.136Z,-0.01
2022-12-10T06:28:11.229Z,-0.03
2022-12-10T06:29:14.248Z,-0.04
2022-12-10T06:30:16.294Z,-0.04
2022-12-10T06:31:19.880Z,-0.11
2022-12-10T06:32:21.918Z,-0.05
2022-12-10T06:33:24.954Z,-0.05
2022-12-10T06:34:27.033Z,-0.07
2022-12-10T06:35:30.250Z,-0.06
2022-12-10T06:36:32.267Z,-0.07
2022-12-10T06:37:35.289Z,-0.07
2022-12-10T06:38:37.934Z,-0.08
2022-12-10T06:39:42.327Z,-0.07
2022-12-10T06:40:44.500Z,-0.09
2022-12-10T06:41:47.563Z,-0.08
2022-12-10T06:42:52.051Z,-0.09
2022-12-10T06:43:59.131Z,-0.09
2022-12-10T06:45:01.350Z,-0.08
2022-12-10T06:46:07.385Z,-0.09
2022-12-10T06:47:09.367Z,-0.11
2022-12-10T06:48:12.438Z,-0.09
2022-12-10T06:49:14.524Z,-0.12
2022-12-10T06:50:17.678Z,-0.12
2022-12-10T06:51:19.828Z,-0.12
2022-12-10T06:52:22.913Z,-0.15
2022-12-10T06:53:25.334Z,-0.15
2022-12-10T06:54:28.445Z,-0.15
2022-12-10T06:55:31.860Z,-0.16
2022-12-10T06:56:34.829Z,-0.16
2022-12-10T06:57:36.927Z,-0.24
2022-12-10T06:58:41.510Z,-0.20
2022-12-10T06:59:43.506Z,-0.21
2022-12-10T07:00:46.613Z,-0.21
2022-12-10T07:01:48.918Z,-0.22
2022-12-10T07:02:52.077Z,-0.22
2022-12-10T07:03:56.359Z,-0.22
2022-12-10T07:04:59.345Z,-0.23
2022-12-10T07:06:02.231Z,-0.26
2022-12-10T07:07:09.358Z,-0.25
2022-12-10T07:08:11.801Z,-0.26
2022-12-10T07:09:14.867Z,-0.27
2022-12-10T07:10:16.957Z,-0.30
2022-12-10T07:11:23.653Z,-0.32
2022-12-10T07:12:25.683Z,-0.34
2022-12-10T07:13:30.914Z,-0.36
2022-12-10T07:14:34.213Z,-0.38
2022-12-10T07:15:36.164Z,-0.37
2022-12-10T07:16:39.683Z,-0.39
2022-12-10T07:17:41.721Z,-0.38
2022-12-10T07:18:51.530Z,-0.38
2022-12-10T07:19:54.830Z,-0.37
2022-12-10T07:20:57.802Z,-0.36
2022-12-10T07:21:59.767Z,-0.36
2022-12-10T07:23:02.860Z,-0.35
2022-12-10T07:24:07.222Z,-0.37
2022-12-10T07:25:10.634Z,-0.40
2022-12-10T07:26:12.748Z,-0.43
2022-12-10T07:27:17.071Z,-0.36
2022-12-10T07:28:19.068Z,-0.36
2022-12-10T07:29:23.292Z,-0.37
2022-12-10T07:30:25.875Z,-0.37
2022-12-10T07:31:29.509Z,-0.38
2022-12-10T07:32:31.587Z,-0.38
2022-12-10T07:33:34.783Z,-0.43
2022-12-10T07:34:36.764Z,-0.36
2022-12-10T07:35:44.603Z,-0.36
2022-12-10T07:36:51.888Z,-0.35
2022-12-10T07:37:53.857Z,-0.37
2022-12-10T07:38:57.229Z,-0.37
2022-12-10T07:39:59.190Z,-0.37
2022-12-10T07:41:05.539Z,-0.40
2022-12-10T07:42:07.532Z,-0.37
2022-12-10T07:43:15.633Z,-0.36
2022-12-10T07:44:19.607Z,-0.34
2022-12-10T07:45:22.607Z,-0.33
2022-12-10T07:46:26.336Z,-0.32
2022-12-10T07:47:29.392Z,-0.30
2022-12-10T07:48:31.456Z,-0.27
2022-12-10T07:49:34.985Z,-0.26
2022-12-10T07:50:37.193Z,-0.26
2022-12-10T07:51:40.783Z,-0.25
2022-12-10T07:52:43.890Z,-0.27
2022-12-10T07:53:46.198Z,-0.28
2022-12-10T07:54:49.254Z,-0.28
2022-12-10T07:55:51.473Z,-0.26
2022-12-10T07:56:54.477Z,-0.27
2022-12-10T07:57:56.492Z,-0.27
2022-12-10T07:59:00.941Z,-0.27
2022-12-10T08:00:03.696Z,-0.27
2022-12-10T08:01:17.038Z,-0.27
2022-12-10T08:02:19.226Z,-0.25
2022-12-10T08:03:22.373Z,-0.24
2022-12-10T08:04:25.570Z,-0.24
2022-12-10T08:05:28.525Z,-0.22
2022-12-10T08:06:30.587Z,-0.22
2022-12-10T08:07:34.961Z,-0.21
2022-12-10T08:08:38.259Z,-0.23
2022-12-10T08:09:41.346Z,-0.23
2022-12-10T08:10:43.414Z,-0.22
2022-12-10T08:11:46.490Z,-0.24
2022-12-10T08:12:49.532Z,-0.25
2022-12-10T08:13:56.607Z,-0.26
2022-12-10T08:15:03.357Z,-0.27
2022-12-10T08:16:07.703Z,-0.28
2022-12-10T08:17:10.828Z,-0.30
2022-12-10T08:18:12.779Z,-0.31
2022-12-10T08:19:21.403Z,-0.31
2022-12-10T08:20:25.571Z,-0.33
2022-12-10T08:21:30.456Z,-0.33
2022-12-10T08:22:34.026Z,-0.33
2022-12-10T08:23:37.943Z,-0.34
2022-12-10T08:24:41.008Z,-0.32
2022-12-10T08:25:43.100Z,-0.30
2022-12-10T08:26:46.232Z,-0.31
2022-12-10T08:27:48.272Z,-0.32
2022-12-10T08:28:52.192Z,-0.34
2022-12-10T08:29:54.181Z,-0.35
2022-12-10T08:30:58.559Z,-0.37
2022-12-10T08:32:01.637Z,-0.39
2022-12-10T08:33:03.881Z,-0.40
2022-12-10T08:34:07.366Z,-0.42
2022-12-10T08:35:09.738Z,-0.42
2022-12-10T08:36:15.674Z,-0.44
2022-12-10T08:37:18.800Z,-0.47
2022-12-10T08:38:20.866Z,-0.44
2022-12-10T08:39:23.978Z,-0.46
2022-12-10T08:40:25.960Z,-0.46
2022-12-10T08:41:29.084Z,-0.48
2022-12-10T08:42:31.070Z,-0.50
2022-12-10T08:43:34.073Z,-0.51
2022-12-10T08:44:37.304Z,-0.52
2022-12-10T08:45:39.283Z,-0.52
2022-12-10T08:46:43.854Z,-0.55
2022-12-10T08:47:45.865Z,-0.56
2022-12-10T08:48:48.934Z,-0.55
2022-12-10T08:49:51.932Z,-0.57
2022-12-10T08:50:55.670Z,-0.55
2022-12-10T08:51:58.689Z,-0.56
2022-12-10T08:53:01.210Z,-0.64
2022-12-10T08:54:04.686Z,-0.59
2022-12-10T08:55:07.534Z,-0.60
2022-12-10T08:56:10.582Z,-0.60
2022-12-10T08:57:12.899Z,-0.63
2022-12-10T08:58:15.904Z,-0.65
2022-12-10T08:59:19.225Z,-0.67
2022-12-10T09:00:21.475Z,-0.67
2022-12-10T09:01:24.696Z,-0.70
2022-12-10T09:02:28.207Z,-0.72
2022-12-10T09:03:31.244Z,-0.73
2022-12-10T09:04:33.200Z,-0.74
2022-12-10T09:05:36.860Z,-0.75
2022-12-10T09:06:38.900Z,-0.75
2022-12-10T09:07:41.962Z,-0.74
2022-12-10T09:08:44.048Z,-0.74
2022-12-10T09:09:47.056Z,-0.74
2022-12-10T09:10:50.096Z,-0.73
2022-12-10T09:11:53.140Z,-0.72
2022-12-10T09:12:59.907Z,-0.72
2022-12-10T09:14:06.134Z,-0.73
2022-12-10T09:15:10.820Z,-0.74
2022-12-10T09:16:14.533Z,-0.74
2022-12-10T09:17:17.696Z,-0.76
2022-12-10T09:18:21.067Z,-0.76
2022-12-10T09:19:24.179Z,-0.76
2022-12-10T09:20:26.263Z,-0.74
2022-12-10T09:21:30.706Z,-0.73
2022-12-10T09:22:33.190Z,-0.70
2022-12-10T09:23:36.705Z,-0.70
2022-12-10T09:24:39.711Z,-0.67
2022-12-10T09:25:41.765Z,-0.67
2022-12-10T09:26:44.717Z,-0.66
2022-12-10T09:27:48.078Z,-0.68
2022-12-10T09:28:51.396Z,-0.68
2022-12-10T09:29:53.477Z,-0.67
2022-12-10T09:31:00.178Z,-0.75
2022-12-10T09:32:03.590Z,-0.67
2022-12-10T09:33:06.762Z,-0.67
2022-12-10T09:34:11.200Z,-0.67
2022-12-10T09:35:13.182Z,-0.66
2022-12-10T09:36:16.363Z,-0.71
2022-12-10T09:37:18.382Z,-0.65
2022-12-10T09:38:21.733Z,-0.66
2022-12-10T09:39:23.805Z,-0.64
2022-12-10T09:40:36.430Z,-0.64
2022-12-10T09:42:08.040Z,-0.64
2022-12-10T09:43:19.751Z,-0.64
2022-12-10T09:44:34.058Z,-0.65
2022-12-10T09:45:45.970Z,-0.66
2022-12-10T09:46:53.055Z,-0.69
2022-12-10T09:48:02.191Z,-0.73
2022-12-10T09:49:21.374Z,-0.71
2022-12-10T09:50:31.575Z,-0.73
2022-12-10T09:51:38.095Z,-0.74
2022-12-10T09:52:44.436Z,-0.74
2022-12-10T09:53:49.396Z,-0.75
2022-12-10T09:54:56.905Z,-0.73
2022-12-10T09:55:59.690Z,-0.75
2022-12-10T09:57:05.665Z,-0.75
2022-12-10T09:58:16.013Z,-0.75
2022-12-10T09:59:22.664Z,-0.79
2022-12-10T10:00:32.448Z,-0.78
2022-12-10T10:01:36.073Z,-0.77
2022-12-10T10:02:39.865Z,-0.77
2022-12-10T10:03:46.961Z,-0.77
2022-12-10T10:04:55.043Z,-0.77
2022-12-10T10:05:58.515Z,-0.76
2022-12-10T10:07:01.275Z,-0.84
2022-12-10T10:08:07.495Z,-0.74
2022-12-10T10:09:13.790Z,-0.73
2022-12-10T10:10:24.718Z,-0.71
2022-12-10T10:11:31.391Z,-0.69
2022-12-10T10:12:34.930Z,-0.67
2022-12-10T10:13:40.687Z,-0.65
2022-12-10T10:14:44.359Z,-0.63
2022-12-10T10:15:47.682Z,-0.63
2022-12-10T10:16:54.479Z,-0.60
2022-12-10T10:18:02.662Z,-0.58
2022-12-10T10:19:08.277Z,-0.56
2022-12-10T10:20:12.237Z,-0.55
2022-12-10T10:21:22.696Z,-0.53
2022-12-10T10:22:27.467Z,-0.53
2022-12-10T10:23:30.606Z,-0.52
2022-12-10T10:24:36.679Z,-0.52
2022-12-10T10:25:40.675Z,-0.53
2022-12-10T10:26:44.436Z,-0.53
2022-12-10T10:27:46.629Z,-0.53
2022-12-10T10:28:54.809Z,-0.55
2022-12-10T10:30:00.944Z,-0.55
2022-12-10T10:31:04.100Z,-0.54
2022-12-10T10:32:19.906Z,-0.56
2022-12-10T10:33:22.040Z,-0.53
2022-12-10T10:34:25.545Z,-0.51
2022-12-10T10:35:32.086Z,-0.51
2022-12-10T10:36:37.473Z,-0.52
2022-12-10T10:37:42.238Z,-0.50
2022-12-10T10:38:50.086Z,-0.51
2022-12-10T10:39:52.700Z,-0.50
2022-12-10T10:40:58.627Z,-0.52
2022-12-10T10:42:09.604Z,-0.52
2022-12-10T10:43:20.432Z,-0.52
2022-12-10T10:44:24.341Z,-0.51
2022-12-10T10:45:37.546Z,-0.52
2022-12-10T10:46:41.277Z,-0.50
2022-12-10T10:47:44.446Z,-0.48
2022-12-10T10:48:47.571Z,-0.48
2022-12-10T10:49:49.563Z,-0.44
2022-12-10T10:50:56.098Z,-0.41
2022-12-10T10:52:00.799Z,-0.40
2022-12-10T10:53:03.793Z,-0.38
2022-12-10T10:54:08.511Z,-0.39
2022-12-10T10:55:33.149Z,-0.49
2022-12-10T10:56:43.112Z,-0.38
2022-12-10T10:57:45.187Z,-0.37
2022-12-10T10:58:54.527Z,-0.36
2022-12-10T11:00:09.641Z,-0.37
2022-12-10T11:01:13.560Z,-0.38
2022-12-10T11:02:23.026Z,-0.40
2022-12-10T11:03:26.163Z,-0.42
2022-12-10T11:04:33.491Z,-0.44
2022-12-10T11:05:37.356Z,-0.44
2022-12-10T11:06:41.286Z,-0.54
2022-12-10T11:07:44.727Z,-0.43
2022-12-10T11:08:48.144Z,-0.43
2022-12-10T11:09:51.791Z,-0.43
2022-12-10T11:11:02.780Z,-0.45
2022-12-10T11:12:08.409Z,-0.44
2022-12-10T11:13:23.571Z,-0.44
2022-12-10T11:14:29.093Z,-0.44
2022-12-10T11:15:34.913Z,-0.44
2022-12-10T11:16:37.978Z,-0.44
2022-12-10T11:17:47.874Z,-0.43
2022-12-10T11:18:58.697Z,-0.40
2022-12-10T11:20:16.341Z,-0.39
2022-12-10T11:21:22.765Z,-0.37
2022-12-10T11:22:28.549Z,-0.35
2022-12-10T11:23:33.067Z,-0.32
2022-12-10T11:24:35.071Z,-0.29
2022-12-10T11:25:49.967Z,-0.28
2022-12-10T11:27:04.147Z,-0.28
2022-12-10T11:28:24.107Z,-0.30
2022-12-10T11:29:43.170Z,-0.30
2022-12-10T11:30:55.126Z,-0.33
2022-12-10T11:32:14.687Z,-0.34
2022-12-10T11:33:24.918Z,-0.35
2022-12-10T11:34:43.754Z,-0.35
2022-12-10T11:35:59.221Z,-0.36
2022-12-10T11:37:09.505Z,-0.37
2022-12-10T11:38:23.678Z,-0.37
2022-12-10T11:39:52.258Z,-0.41
2022-12-10T11:41:04.103Z,-0.42
2022-12-10T11:42:15.058Z,-0.56
2022-12-10T11:43:33.524Z,-0.48
2022-12-10T11:44:43.391Z,-0.50
2022-12-10T11:46:00.425Z,-0.52
2022-12-10T11:47:26.105Z,-0.56
2022-12-10T11:48:42.557Z,-0.58
2022-12-10T11:49:55.561Z,-0.60
2022-12-10T11:51:03.546Z,-0.62
2022-12-10T11:52:18.709Z,-0.65
2022-12-10T11:53:52.413Z,-0.67
2022-12-10T11:55:07.553Z,-0.68
2022-12-10T11:56:24.111Z,-0.71
2022-12-10T11:57:39.819Z,-0.72
2022-12-10T11:58:57.466Z,-0.73
2022-12-10T12:00:07.557Z,-0.74
2022-12-10T12:01:18.858Z,-0.74
2022-12-10T12:02:49.066Z,-0.75
2022-12-10T12:04:15.965Z,-0.75
2022-12-10T12:05:33.048Z,-0.76
2022-12-10T12:06:59.766Z,-0.77
2022-12-10T12:08:11.311Z,-0.77
2022-12-10T12:09:30.855Z,-0.76
2022-12-10T12:10:55.874Z,-0.76
2022-12-10T12:12:10.976Z,-0.77
2022-12-10T12:13:17.961Z,-0.77
2022-12-10T12:14:26.723Z,-0.74
2022-12-10T12:15:33.933Z,-0.76
2022-12-10T12:16:41.551Z,-0.67
2022-12-10T12:17:49.193Z,-0.64
2022-12-10T12:18:57.796Z,-0.60
2022-12-10T12:20:04.397Z,-0.59
2022-12-10T12:21:12.203Z,-0.53
2022-12-10T12:22:16.791Z,-0.52
2022-12-10T12:23:26.285Z,-0.50
2022-12-10T12:24:37.452Z,-0.50
2022-12-10T12:25:44.146Z,-0.52
2022-12-10T12:26:54.794Z,-0.53
2022-12-10T12:28:02.411Z,-0.52
2022-12-10T12:29:17.366Z,-0.54
2022-12-10T12:30:21.504Z,-0.55
2022-12-10T12:31:31.838Z,-0.56
2022-12-10T12:32:47.146Z,-0.56
2022-12-10T12:33:55.875Z,-0.57
2022-12-10T12:35:03.245Z,-0.58
2022-12-10T12:36:12.139Z,-0.57
2022-12-10T12:37:18.995Z,-0.58
2022-12-10T12:38:29.508Z,-0.58
2022-12-10T12:39:41.085Z,-0.56
2022-12-10T12:40:50.457Z,-0.56
2022-12-10T12:42:03.536Z,-0.52
2022-12-10T12:43:14.688Z,-0.55
2022-12-10T12:44:21.256Z,-0.50
2022-12-10T12:45:34.876Z,-0.49
2022-12-10T12:46:42.995Z,-0.48
2022-12-10T12:47:54.412Z,-0.52
2022-12-10T12:49:11.874Z,-0.47
2022-12-10T12:50:26.910Z,-0.48
2022-12-10T12:51:35.659Z,-0.49
2022-12-10T12:52:47.734Z,-0.49
2022-12-10T12:53:49.933Z,-0.51
2022-12-10T12:54:56.074Z,-0.54
2022-12-10T12:56:04.286Z,-0.57
2022-12-10T12:57:15.257Z,-0.57
2022-12-10T12:58:27.605Z,-0.60
2022-12-10T12:59:51.977Z,-0.64
2022-12-10T13:00:58.434Z,-0.72
2022-12-10T13:02:09.040Z,-0.68
2022-12-10T13:03:29.538Z,-0.71
2022-12-10T13:04:32.560Z,-0.70
2022-12-10T13:05:38.610Z,-0.72
2022-12-10T13:06:45.331Z,-0.74
2022-12-10T13:08:28.086Z,-0.74
2022-12-10T13:09:32.178Z,-0.82
2022-12-10T13:10:48.130Z,-0.79
2022-12-10T13:12:20.187Z,-0.81
2022-12-10T13:13:30.925Z,-0.81
2022-12-10T13:14:35.813Z,-0.83
2022-12-10T13:15:40.508Z,-0.86
2022-12-10T13:17:00.406Z,-0.86
2022-12-10T13:18:21.604Z,-0.86
2022-12-10T13:19:30.581Z,-0.89
2022-12-10T13:20:42.189Z,-0.90
2022-12-10T13:22:03.046Z,-0.90
2022-12-10T13:23:26.963Z,-0.92
2022-12-10T13:25:14.784Z,-0.92
2022-12-10T13:26:30.024Z,-0.91
2022-12-10T13:27:34.875Z,-0.92
2022-12-10T13:28:51.828Z,-0.90
2022-12-10T13:29:57.884Z,-0.90
2022-12-10T13:31:20.392Z,-0.89
2022-12-10T13:32:25.978Z,-0.87
2022-12-10T13:33:47.544Z,-0.87
2022-12-10T13:35:33.778Z,-0.87
2022-12-10T13:36:58.567Z,-0.87
2022-12-10T13:38:20.946Z,-0.89
2022-12-10T13:39:34.906Z,-0.89
2022-12-10T13:40:58.855Z,-0.89
2022-12-10T13:42:50.275Z,-0.90
2022-12-10T13:44:12.978Z,-0.91
2022-12-10T13:45:39.989Z,-0.89
2022-12-10T13:46:59.393Z,-0.88
2022-12-10T13:48:28.249Z,-0.87
2022-12-10T13:49:35.515Z,-0.85
2022-12-10T13:50:46.152Z,-0.83
2022-12-10T13:51:57.470Z,-0.80
2022-12-10T13:53:10.266Z,-0.79
2022-12-10T13:54:38.864Z,-0.74
2022-12-10T13:56:01.919Z,-0.72
2022-12-10T13:57:16.932Z,-0.70
2022-12-10T13:58:37.316Z,-0.70
2022-12-10T13:59:49.349Z,-0.73
2022-12-10T14:01:03.911Z,-0.76
2022-12-10T14:02:29.751Z,-0.79
2022-12-10T14:04:03.448Z,-0.87
2022-12-10T14:05:29.389Z,-0.87
2022-12-10T14:06:37.036Z,-0.93
2022-12-10T14:07:40.858Z,-0.94
2022-12-10T14:08:54.989Z,-0.96
2022-12-10T14:10:00.377Z,-0.97
2022-12-10T14:11:06.449Z,-1.07
2022-12-10T14:12:16.890Z,-1.03
2022-12-10T14:13:23.864Z,-1.03
2022-12-10T14:14:32.706Z,-1.09
2022-12-10T14:15:39.480Z,-1.05
2022-12-10T14:16:42.343Z,-1.06
2022-12-10T14:17:46.613Z,-1.07
2022-12-10T14:18:55.060Z,-1.08
2022-12-10T14:19:58.258Z,-1.08
2022-12-10T14:21:06.046Z,-1.10
2022-12-10T14:22:10.468Z,-1.11
2022-12-10T14:23:42.642Z,-1.11
2022-12-10T14:24:52.235Z,-1.12
2022-12-10T14:25:56.078Z,-1.12
2022-12-10T14:27:01.612Z,-1.13
2022-12-10T14:28:04.873Z,-1.13
2022-12-10T14:29:25.753Z,-1.15
2022-12-10T14:30:31.872Z,-1.15
2022-12-10T14:31:37.979Z,-1.14